www.cux-wetter.de
Wetterdaten: Freitag, 14.12.2012
Datum Zeit Temp. A. Feuchte A. Luftdruck Regen Wind Richtung Richtung Sonnenschein Solar Taupunkt Windchill Windben
14.12.2012 00:00 -2,2 C 86 % 1008,5 hPa 0,0 l/m 13,0 km/h (3 Bft) SO 140 0 min 0 W/m -4,2 C -8,3 C 13,0 km/h (3 Bft)
14.12.2012 00:16 -2,2 C 86 % 1008,5 hPa 0,0 l/m 11,3 km/h (2 Bft) S-SO 155 0 min 0 W/m -4,2 C -7,0 C 11,3 km/h (2 Bft)
14.12.2012 00:30 -2,3 C 86 % 1007,5 hPa 0,0 l/m 14,5 km/h (3 Bft) S-SO 150 0 min 0 W/m -4,3 C -9,4 C 14,5 km/h (3 Bft)
14.12.2012 00:45 -2,3 C 86 % 1007,5 hPa 0,0 l/m 15,5 km/h (3 Bft) SO 135 0 min 0 W/m -4,3 C -10,1 C 15,5 km/h (3 Bft)
14.12.2012 01:00 -2,3 C 86 % 1007,5 hPa 0,0 l/m 16,8 km/h (3 Bft) SO 140 0 min 0 W/m -4,3 C -10,9 C 16,8 km/h (3 Bft)
14.12.2012 01:16 -2,4 C 86 % 1007,5 hPa 0,0 l/m 19,6 km/h (3 Bft) SO 135 0 min 0 W/m -4,4 C -12,5 C 19,6 km/h (3 Bft)
14.12.2012 01:30 -2,4 C 86 % 1007,5 hPa 0,0 l/m 20,5 km/h (4 Bft) S-SO 155 0 min 0 W/m -4,4 C -13,0 C 20,5 km/h (4 Bft)
14.12.2012 01:45 -2,5 C 86 % 1007,5 hPa 0,0 l/m 17,4 km/h (3 Bft) SO 130 0 min 0 W/m -4,5 C -11,5 C 17,4 km/h (3 Bft)
14.12.2012 02:00 -2,6 C 86 % 1007,5 hPa 0,0 l/m 21,6 km/h (4 Bft) SO 145 0 min 0 W/m -4,6 C -13,8 C 21,6 km/h (4 Bft)
14.12.2012 02:16 -2,6 C 86 % 1007,5 hPa 0,0 l/m 15,5 km/h (3 Bft) SO 135 0 min 0 W/m -4,6 C -10,5 C 15,5 km/h (3 Bft)
14.12.2012 02:30 -2,6 C 86 % 1007,5 hPa 0,0 l/m 17,6 km/h (3 Bft) SO 130 0 min 0 W/m -4,6 C -11,7 C 17,6 km/h (3 Bft)
14.12.2012 02:45 -2,8 C 86 % 1006,5 hPa 0,0 l/m 20,3 km/h (4 Bft) S-SO 150 0 min 0 W/m -4,8 C -13,4 C 20,3 km/h (4 Bft)
14.12.2012 03:00 -2,9 C 86 % 1006,5 hPa 0,0 l/m 20,3 km/h (4 Bft) S-SO 155 0 min 0 W/m -4,9 C -13,5 C 20,3 km/h (4 Bft)
14.12.2012 03:15 -3,0 C 86 % 1007,5 hPa 0,0 l/m 16,1 km/h (3 Bft) S-SO 150 0 min 0 W/m -5,0 C -11,3 C 16,1 km/h (3 Bft)
14.12.2012 03:30 -3,0 C 86 % 1006,5 hPa 0,0 l/m 19,0 km/h (3 Bft) SO 140 0 min 0 W/m -5,0 C -13,0 C 19,0 km/h (3 Bft)
14.12.2012 03:45 -3,0 C 87 % 1006,5 hPa 0,0 l/m 17,5 km/h (3 Bft) S-SO 155 0 min 0 W/m -4,9 C -12,2 C 17,5 km/h (3 Bft)
14.12.2012 04:00 -3,0 C 87 % 1006,5 hPa 0,0 l/m 15,6 km/h (3 Bft) SO 125 0 min 0 W/m -4,9 C -11,0 C 15,6 km/h (3 Bft)
14.12.2012 04:15 -3,0 C 87 % 1006,5 hPa 0,0 l/m 21,0 km/h (4 Bft) S-SO 150 0 min 0 W/m -4,9 C -14,0 C 21,0 km/h (4 Bft)
14.12.2012 04:30 -3,0 C 87 % 1006,5 hPa 0,0 l/m 14,0 km/h (3 Bft) SO 135 0 min 0 W/m -4,9 C -9,9 C 14,0 km/h (3 Bft)
14.12.2012 04:45 -3,0 C 87 % 1006,5 hPa 0,0 l/m 16,9 km/h (3 Bft) SO 145 0 min 0 W/m -4,9 C -11,8 C 16,9 km/h (3 Bft)
14.12.2012 05:00 -2,9 C 87 % 1006,5 hPa 0,0 l/m 16,9 km/h (3 Bft) SO 145 0 min 0 W/m -4,8 C -11,7 C 16,9 km/h (3 Bft)
14.12.2012 05:15 -3,0 C 87 % 1006,5 hPa 0,0 l/m 16,9 km/h (3 Bft) SO 145 0 min 0 W/m -4,9 C -11,8 C 16,9 km/h (3 Bft)
14.12.2012 05:30 -3,0 C 87 % 1006,5 hPa 0,0 l/m 16,9 km/h (3 Bft) SO 145 0 min 0 W/m -4,9 C -11,8 C 16,9 km/h (3 Bft)
14.12.2012 05:45 -3,0 C 87 % 1006,5 hPa 0,0 l/m 16,9 km/h (3 Bft) SO 145 0 min 0 W/m -4,9 C -11,8 C 16,9 km/h (3 Bft)
14.12.2012 06:00 -2,9 C 87 % 1006,5 hPa 0,0 l/m 16,9 km/h (3 Bft) SO 145 0 min 0 W/m -4,8 C -11,7 C 16,9 km/h (3 Bft)
14.12.2012 06:15 -3,0 C 87 % 1006,5 hPa 0,0 l/m 16,9 km/h (3 Bft) SO 145 0 min 0 W/m -4,9 C -11,8 C 16,9 km/h (3 Bft)
14.12.2012 06:30 -2,9 C 87 % 1006,5 hPa 0,0 l/m 16,9 km/h (3 Bft) SO 145 0 min 0 W/m -4,8 C -11,7 C 16,9 km/h (3 Bft)
14.12.2012 06:45 -3,0 C 87 % 1006,5 hPa 0,0 l/m 16,9 km/h (3 Bft) SO 145 0 min 0 W/m -4,9 C -11,8 C 16,9 km/h (3 Bft)
14.12.2012 07:00 -2,8 C 87 % 1006,5 hPa 0,0 l/m 16,9 km/h (3 Bft) SO 145 0 min 0 W/m -4,7 C -11,6 C 16,9 km/h (3 Bft)
14.12.2012 07:15 -2,6 C 87 % 1006,5 hPa 0,0 l/m 16,9 km/h (3 Bft) SO 145 0 min 0 W/m -4,5 C -11,3 C 16,9 km/h (3 Bft)
14.12.2012 07:30 -2,6 C 87 % 1006,5 hPa 0,0 l/m 16,9 km/h (3 Bft) SO 145 0 min 0 W/m -4,5 C -11,3 C 16,9 km/h (3 Bft)
14.12.2012 07:45 -2,6 C 87 % 1005,5 hPa 0,0 l/m 16,9 km/h (3 Bft) SO 145 0 min 0 W/m -4,5 C -11,3 C 16,9 km/h (3 Bft)
14.12.2012 08:00 -2,6 C 87 % 1005,5 hPa 0,0 l/m 16,9 km/h (3 Bft) SO 145 0 min 0 W/m -4,5 C -11,3 C 16,9 km/h (3 Bft)
14.12.2012 08:15 -2,6 C 87 % 1005,5 hPa 0,0 l/m 16,9 km/h (3 Bft) SO 145 0 min 0 W/m -4,5 C -11,3 C 16,9 km/h (3 Bft)
14.12.2012 08:30 -2,5 C 87 % 1005,5 hPa 0,0 l/m 16,9 km/h (3 Bft) SO 145 0 min 0 W/m -4,4 C -11,2 C 16,9 km/h (3 Bft)
14.12.2012 08:45 -2,4 C 87 % 1005,5 hPa 0,0 l/m 18,2 km/h (3 Bft) O-SO 120 0 min 0 W/m -4,3 C -11,8 C 18,2 km/h (3 Bft)
14.12.2012 09:00 -2,4 C 87 % 1005,5 hPa 0,0 l/m 18,6 km/h (3 Bft) SO 135 0 min 0 W/m -4,3 C -12,0 C 18,6 km/h (3 Bft)
14.12.2012 09:15 -2,3 C 87 % 1005,5 hPa 0,0 l/m 19,3 km/h (3 Bft) SO 125 0 min 0 W/m -4,2 C -12,2 C 19,3 km/h (3 Bft)
14.12.2012 09:30 -2,2 C 88 % 1005,5 hPa 0,0 l/m 15,9 km/h (3 Bft) SO 135 0 min 0 W/m -3,9 C -10,2 C 15,9 km/h (3 Bft)
14.12.2012 09:45 -2,2 C 88 % 1005,5 hPa 0,0 l/m 20,3 km/h (4 Bft) SO 145 0 min 0 W/m -3,9 C -12,6 C 20,3 km/h (4 Bft)
14.12.2012 10:00 -2,0 C 88 % 1005,5 hPa 0,0 l/m 15,8 km/h (3 Bft) O-SO 115 0 min 0 W/m -3,7 C -9,9 C 15,8 km/h (3 Bft)
14.12.2012 10:15 -2,0 C 88 % 1005,5 hPa 0,0 l/m 15,8 km/h (3 Bft) O-SO 115 0 min 0 W/m -3,7 C -9,9 C 15,8 km/h (3 Bft)
14.12.2012 10:30 -1,8 C 88 % 1004,5 hPa 0,0 l/m 14,6 km/h (3 Bft) SO 140 0 min 0 W/m -3,5 C -8,9 C 14,6 km/h (3 Bft)
14.12.2012 10:45 -1,6 C 87 % 1004,5 hPa 0,0 l/m 14,6 km/h (3 Bft) SO 140 0 min 0 W/m -3,5 C -8,7 C 14,6 km/h (3 Bft)
14.12.2012 11:00 -1,7 C 87 % 1004,5 hPa 0,0 l/m 14,6 km/h (3 Bft) SO 140 0 min 0 W/m -3,6 C -8,8 C 14,6 km/h (3 Bft)
14.12.2012 11:15 -1,6 C 87 % 1004,5 hPa 0,0 l/m 17,5 km/h (3 Bft) SO 145 0 min 0 W/m -3,5 C -10,4 C 17,5 km/h (3 Bft)
14.12.2012 11:30 -1,4 C 87 % 1004,5 hPa 0,0 l/m 17,5 km/h (3 Bft) SO 145 0 min 0 W/m -3,3 C -10,1 C 17,5 km/h (3 Bft)
14.12.2012 11:45 -1,2 C 87 % 1004,5 hPa 0,0 l/m 17,5 km/h (3 Bft) SO 145 0 min 0 W/m -3,1 C -9,9 C 17,5 km/h (3 Bft)
14.12.2012 12:00 -1,2 C 87 % 1003,5 hPa 0,0 l/m 17,5 km/h (3 Bft) SO 145 0 min 0 W/m -3,1 C -9,9 C 17,5 km/h (3 Bft)
14.12.2012 12:15 -0,9 C 86 % 1003,5 hPa 0,0 l/m 17,5 km/h (3 Bft) SO 145 0 min 0 W/m -2,9 C -9,5 C 17,5 km/h (3 Bft)
14.12.2012 12:30 -0,6 C 86 % 1003,5 hPa 0,0 l/m 18,5 km/h (3 Bft) SO 145 0 min 0 W/m -2,6 C -9,7 C 18,5 km/h (3 Bft)
14.12.2012 12:45 -0,8 C 85 % 1003,5 hPa 0,0 l/m 18,5 km/h (3 Bft) SO 145 0 min 0 W/m -3,0 C -9,9 C 18,5 km/h (3 Bft)
14.12.2012 13:01 -0,7 C 86 % 1003,5 hPa 0,0 l/m 18,5 km/h (3 Bft) SO 145 0 min 0 W/m -2,7 C -9,8 C 18,5 km/h (3 Bft)
14.12.2012 13:15 -0,6 C 86 % 1003,5 hPa 0,0 l/m 18,5 km/h (3 Bft) SO 145 0 min 0 W/m -2,6 C -9,7 C 18,5 km/h (3 Bft)
14.12.2012 13:30 -0,6 C 86 % 1002,5 hPa 0,0 l/m 18,5 km/h (3 Bft) SO 145 0 min 0 W/m -2,6 C -9,7 C 18,5 km/h (3 Bft)
14.12.2012 13:45 -0,6 C 86 % 1002,5 hPa 0,0 l/m 15,5 km/h (3 Bft) SO 135 0 min 0 W/m -2,6 C -8,0 C 15,5 km/h (3 Bft)
14.12.2012 14:01 -0,6 C 86 % 1002,5 hPa 0,0 l/m 15,5 km/h (3 Bft) SO 135 0 min 0 W/m -2,6 C -8,0 C 15,5 km/h (3 Bft)
14.12.2012 14:15 -0,6 C 86 % 1001,5 hPa 0,0 l/m 15,5 km/h (3 Bft) SO 135 0 min 0 W/m -2,6 C -8,0 C 15,5 km/h (3 Bft)
14.12.2012 14:30 -0,6 C 86 % 1001,5 hPa 0,0 l/m 15,5 km/h (3 Bft) SO 135 0 min 0 W/m -2,6 C -8,0 C 15,5 km/h (3 Bft)
14.12.2012 14:46 -0,7 C 86 % 1001,5 hPa 0,0 l/m 15,5 km/h (3 Bft) SO 135 0 min 0 W/m -2,7 C -8,1 C 15,5 km/h (3 Bft)
14.12.2012 15:01 -0,8 C 87 % 1000,5 hPa 0,0 l/m 21,0 km/h (4 Bft) O-SO 115 0 min 0 W/m -2,7 C -11,1 C 21,0 km/h (4 Bft)
14.12.2012 15:15 -0,7 C 87 % 1000,5 hPa 0,0 l/m 19,4 km/h (3 Bft) SO 125 0 min 0 W/m -2,6 C -10,2 C 19,4 km/h (3 Bft)
14.12.2012 15:30 -0,5 C 88 % 1000,5 hPa 0,0 l/m 23,6 km/h (4 Bft) SO 140 0 min 0 W/m -2,2 C -11,8 C 23,6 km/h (4 Bft)
14.12.2012 15:46 -0,5 C 88 % 999,5 hPa 0,0 l/m 24,3 km/h (4 Bft) SO 145 0 min 0 W/m -2,2 C -12,1 C 24,3 km/h (4 Bft)
14.12.2012 16:01 -0,5 C 89 % 999,5 hPa 0,0 l/m 26,6 km/h (4 Bft) SO 125 0 min 0 W/m -2,1 C -13,0 C 26,6 km/h (4 Bft)
14.12.2012 16:15 -0,5 C 89 % 999,5 hPa 0,0 l/m 18,8 km/h (3 Bft) O-SO 120 0 min 0 W/m -2,1 C -9,7 C 18,8 km/h (3 Bft)
14.12.2012 16:31 -0,3 C 90 % 998,5 hPa 0,0 l/m 20,4 km/h (4 Bft) SO 140 0 min 0 W/m -1,7 C -10,2 C 20,4 km/h (4 Bft)
14.12.2012 16:46 -0,2 C 89 % 998,5 hPa 0,0 l/m 18,9 km/h (3 Bft) SO 135 0 min 0 W/m -1,8 C -9,4 C 18,9 km/h (3 Bft)
14.12.2012 17:00 0,0 C 90 % 997,5 hPa 0,0 l/m 18,9 km/h (3 Bft) SO 135 0 min 0 W/m -1,4 C -9,1 C 18,9 km/h (3 Bft)
14.12.2012 17:15 0,2 C 90 % 997,5 hPa 0,0 l/m 18,9 km/h (3 Bft) SO 135 0 min 0 W/m -1,2 C -8,8 C 18,9 km/h (3 Bft)
14.12.2012 17:31 0,3 C 90 % 997,5 hPa 0,0 l/m 18,9 km/h (3 Bft) SO 135 0 min 0 W/m -1,1 C -8,7 C 18,9 km/h (3 Bft)
14.12.2012 17:46 0,3 C 90 % 996,5 hPa 0,0 l/m 18,9 km/h (3 Bft) SO 135 0 min 0 W/m -1,1 C -8,7 C 18,9 km/h (3 Bft)
14.12.2012 18:00 0,3 C 90 % 996,5 hPa 0,0 l/m 18,9 km/h (3 Bft) SO 135 0 min 0 W/m -1,1 C -8,7 C 18,9 km/h (3 Bft)
14.12.2012 18:16 0,4 C 90 % 996,5 hPa 0,0 l/m 18,9 km/h (3 Bft) SO 135 0 min 0 W/m -1,0 C -8,6 C 18,9 km/h (3 Bft)
14.12.2012 18:31 0,5 C 90 % 995,5 hPa 0,0 l/m 18,9 km/h (3 Bft) SO 135 0 min 0 W/m -0,9 C -8,5 C 18,9 km/h (3 Bft)
14.12.2012 18:45 0,6 C 90 % 995,5 hPa 0,0 l/m 27,7 km/h (5 Bft) SO 135 0 min 0 W/m -0,8 C -11,8 C 27,7 km/h (5 Bft)
14.12.2012 19:00 0,7 C 90 % 994,5 hPa 0,0 l/m 17,1 km/h (3 Bft) SO 145 0 min 0 W/m -0,7 C -7,3 C 17,1 km/h (3 Bft)
14.12.2012 19:16 0,9 C 90 % 994,5 hPa 0,0 l/m 17,1 km/h (3 Bft) SO 145 0 min 0 W/m -0,6 C -7,1 C 17,1 km/h (3 Bft)
14.12.2012 19:30 1,0 C 91 % 993,5 hPa 0,0 l/m 17,1 km/h (3 Bft) SO 145 0 min 0 W/m -0,3 C -6,9 C 17,1 km/h (3 Bft)
14.12.2012 19:45 1,1 C 91 % 993,5 hPa 0,0 l/m 17,1 km/h (3 Bft) SO 145 0 min 0 W/m -0,2 C -6,8 C 17,1 km/h (3 Bft)
14.12.2012 20:00 1,2 C 90 % 992,5 hPa 0,0 l/m 17,1 km/h (3 Bft) SO 145 0 min 0 W/m -0,3 C -6,7 C 17,1 km/h (3 Bft)
14.12.2012 20:16 1,2 C 90 % 992,5 hPa 0,0 l/m 17,1 km/h (3 Bft) SO 145 0 min 0 W/m -0,3 C -6,7 C 17,1 km/h (3 Bft)
14.12.2012 20:30 1,2 C 90 % 991,5 hPa 0,0 l/m 17,1 km/h (3 Bft) SO 145 0 min 0 W/m -0,3 C -6,7 C 17,1 km/h (3 Bft)
14.12.2012 20:45 1,2 C 90 % 991,5 hPa 0,0 l/m 17,1 km/h (3 Bft) SO 145 0 min 0 W/m -0,3 C -6,7 C 17,1 km/h (3 Bft)
14.12.2012 21:00 1,2 C 90 % 991,5 hPa 0,0 l/m 35,4 km/h (5 Bft) SO 145 0 min 0 W/m -0,3 C -13,1 C 35,4 km/h (5 Bft)
14.12.2012 21:15 1,2 C 90 % 991,5 hPa 0,0 l/m 28,9 km/h (5 Bft) S-SO 150 0 min 0 W/m -0,3 C -11,4 C 28,9 km/h (5 Bft)
14.12.2012 21:30 1,3 C 91 % 991,5 hPa 0,0 l/m 26,5 km/h (4 Bft) S-SO 155 0 min 0 W/m -0,0 C -10,5 C 26,5 km/h (4 Bft)
14.12.2012 21:45 1,3 C 91 % 990,5 hPa 0,0 l/m 30,7 km/h (5 Bft) S-SO 150 0 min 0 W/m -0,0 C -11,8 C 30,7 km/h (5 Bft)
14.12.2012 22:00 1,4 C 92 % 990,5 hPa 0,0 l/m 35,0 km/h (5 Bft) S-SO 150 0 min 0 W/m 0,2 C -12,8 C 35,0 km/h (5 Bft)
14.12.2012 22:15 1,3 C 92 % 990,5 hPa 0,0 l/m 26,7 km/h (4 Bft) S 175 0 min 0 W/m 0,1 C -10,5 C 26,7 km/h (4 Bft)
14.12.2012 22:30 1,4 C 92 % 989,5 hPa 0,0 l/m 27,0 km/h (5 Bft) S-SO 155 0 min 0 W/m 0,2 C -10,5 C 27,0 km/h (5 Bft)
14.12.2012 22:45 1,5 C 93 % 989,5 hPa 0,0 l/m 20,8 km/h (4 Bft) S 170 0 min 0 W/m 0,5 C -8,0 C 20,8 km/h (4 Bft)
14.12.2012 23:00 1,6 C 93 % 989,5 hPa 0,0 l/m 32,2 km/h (5 Bft) S 175 0 min 0 W/m 0,6 C -11,8 C 32,2 km/h (5 Bft)
14.12.2012 23:15 1,7 C 93 % 989,5 hPa 0,0 l/m 32,1 km/h (5 Bft) S-SO 160 0 min 0 W/m 0,7 C -11,6 C 32,1 km/h (5 Bft)
14.12.2012 23:30 1,8 C 93 % 989,5 hPa 0,0 l/m 25,8 km/h (4 Bft) S-SO 165 0 min 0 W/m 0,8 C -9,6 C 25,8 km/h (4 Bft)
14.12.2012 23:45 1,9 C 93 % 989,5 hPa 0,6 l/m 26,6 km/h (4 Bft) S 170 0 min 0 W/m 0,9 C -9,7 C 26,6 km/h (4 Bft)
_ Min-Zeit 03:15 12:45 22:30 - 00:16 - - - - 03:15 04:15 00:16
Minimum _ -3,0 C 85 % 989,5 hPa - 11,3 km/h (2 Bft) - - - - -5,0 C -14,0 C 11,3 km/h (2 Bft)
_ Max-Zeit 23:45 22:45 00:00 23:45 21:00 - - 00:00 00:00 23:45 20:00 21:00
Maximum _ 1,9 C 93 % 1008,5 hPa 0,6 l/m 35,4 km/h
SO (5 Bft)
- - 0 min 0 W/m 0,9 C -6,7 C 35,4 km/h
S-SO (5 Bft)
Durchschnitt _ -1,1 C 88 % 1001,3 hPa #0,6 l/m 19,2 km/h (3 Bft) SO - #0 min. 0 W/m -2,8 C -10,4 C 19,2 km/h (3 Bft)
copyright by Holger Just